sensor_id;sensor_type;location;lat;lon;timestamp;pressure;altitude;pressure_sealevel;temperature;humidity
17072;BME280;7731;50.720;6.912;2023-02-15T00:01:06;101382.75;;;2.45;100.00
17072;BME280;7731;50.720;6.912;2023-02-15T00:03:39;101382.78;;;2.57;100.00
17072;BME280;7731;50.720;6.912;2023-02-15T00:06:09;101378.50;;;2.44;100.00
17072;BME280;7731;50.720;6.912;2023-02-15T00:08:40;101373.34;;;2.22;100.00
17072;BME280;7731;50.720;6.912;2023-02-15T00:11:12;101369.28;;;2.57;100.00
17072;BME280;7731;50.720;6.912;2023-02-15T00:13:44;101369.28;;;2.55;100.00
17072;BME280;7731;50.720;6.912;2023-02-15T00:16:15;101365.00;;;2.46;100.00
17072;BME280;7731;50.720;6.912;2023-02-15T00:18:48;101369.16;;;2.24;100.00
17072;BME280;7731;50.720;6.912;2023-02-15T00:21:21;101372.59;;;2.45;100.00
17072;BME280;7731;50.720;6.912;2023-02-15T00:23:51;101374.19;;;2.21;100.00
17072;BME280;7731;50.720;6.912;2023-02-15T00:26:21;101367.47;;;2.32;100.00
17072;BME280;7731;50.720;6.912;2023-02-15T00:28:52;101364.13;;;2.34;100.00
17072;BME280;7731;50.720;6.912;2023-02-15T00:31:22;101362.38;;;2.23;100.00
17072;BME280;7731;50.720;6.912;2023-02-15T00:33:55;101352.25;;;2.32;100.00
17072;BME280;7731;50.720;6.912;2023-02-15T00:36:25;101348.88;;;2.30;100.00
17072;BME280;7731;50.720;6.912;2023-02-15T00:38:55;101353.03;;;2.21;100.00
17072;BME280;7731;50.720;6.912;2023-02-15T00:41:26;101349.72;;;2.34;100.00
17072;BME280;7731;50.720;6.912;2023-02-15T00:43:56;101355.50;;;2.07;100.00
17072;BME280;7731;50.720;6.912;2023-02-15T00:46:26;101355.56;;;2.18;100.00
17072;BME280;7731;50.720;6.912;2023-02-15T00:49:01;101347.97;;;2.18;100.00
17072;BME280;7731;50.720;6.912;2023-02-15T00:51:32;101344.56;;;2.11;100.00
17072;BME280;7731;50.720;6.912;2023-02-15T00:54:03;101350.44;;;2.04;100.00
17072;BME280;7731;50.720;6.912;2023-02-15T00:56:33;101344.56;;;2.14;100.00
17072;BME280;7731;50.720;6.912;2023-02-15T00:59:03;101334.47;;;2.19;100.00
17072;BME280;7731;50.720;6.912;2023-02-15T01:01:35;101342.13;;;2.32;100.00
17072;BME280;7731;50.720;6.912;2023-02-15T01:04:14;101340.47;;;2.42;100.00
17072;BME280;7731;50.720;6.912;2023-02-15T01:06:44;101339.59;;;2.34;100.00
17072;BME280;7731;50.720;6.912;2023-02-15T01:09:14;101344.75;;;2.57;100.00
17072;BME280;7731;50.720;6.912;2023-02-15T01:11:44;101338.72;;;2.27;100.00
17072;BME280;7731;50.720;6.912;2023-02-15T01:14:14;101338.72;;;2.27;100.00
17072;BME280;7731;50.720;6.912;2023-02-15T01:16:45;101342.88;;;2.18;100.00
17072;BME280;7731;50.720;6.912;2023-02-15T01:19:17;101334.44;;;2.12;100.00
17072;BME280;7731;50.720;6.912;2023-02-15T01:21:47;101331.94;;;2.20;100.00
17072;BME280;7731;50.720;6.912;2023-02-15T01:24:17;101338.69;;;2.21;100.00
17072;BME280;7731;50.720;6.912;2023-02-15T01:26:48;101345.31;;;1.94;100.00
17072;BME280;7731;50.720;6.912;2023-02-15T01:29:19;101335.13;;;1.85;100.00
17072;BME280;7731;50.720;6.912;2023-02-15T01:31:49;101336.81;;;1.86;100.00
17072;BME280;7731;50.720;6.912;2023-02-15T01:34:22;101328.16;;;1.55;100.00
17072;BME280;7731;50.720;6.912;2023-02-15T01:36:52;101326.47;;;1.52;100.00
17072;BME280;7731;50.720;6.912;2023-02-15T01:39:22;101327.28;;;1.47;100.00
17072;BME280;7731;50.720;6.912;2023-02-15T01:41:55;101333.91;;;1.29;100.00
17072;BME280;7731;50.720;6.912;2023-02-15T01:44:48;101327.97;;;1.29;100.00
17072;BME280;7731;50.720;6.912;2023-02-15T01:47:23;101322.13;;;1.34;100.00
17072;BME280;7731;50.720;6.912;2023-02-15T01:50:09;101324.69;;;1.39;100.00
17072;BME280;7731;50.720;6.912;2023-02-15T01:52:45;101331.50;;;1.46;100.00
17072;BME280;7731;50.720;6.912;2023-02-15T01:55:20;101322.13;;;1.37;100.00
17072;BME280;7731;50.720;6.912;2023-02-15T01:57:51;101313.00;;;1.59;100.00
17072;BME280;7731;50.720;6.912;2023-02-15T02:00:22;101324.06;;;1.69;100.00
17072;BME280;7731;50.720;6.912;2023-02-15T02:02:55;101301.44;;;2.02;100.00
17072;BME280;7731;50.720;6.912;2023-02-15T02:05:29;101316.59;;;1.95;100.00
17072;BME280;7731;50.720;6.912;2023-02-15T02:08:02;101315.63;;;1.73;100.00
17072;BME280;7731;50.720;6.912;2023-02-15T02:10:33;101312.31;;;1.87;100.00
17072;BME280;7731;50.720;6.912;2023-02-15T02:13:06;101321.38;;;1.49;100.00
17072;BME280;7731;50.720;6.912;2023-02-15T02:15:51;101311.31;;;1.55;100.00
17072;BME280;7731;50.720;6.912;2023-02-15T02:18:38;101310.50;;;1.66;100.00
17072;BME280;7731;50.720;6.912;2023-02-15T02:21:54;101302.06;;;1.64;100.00
17072;BME280;7731;50.720;6.912;2023-02-15T02:31:18;101292.69;;;1.50;100.00
17072;BME280;7731;50.720;6.912;2023-02-15T02:34:05;101286.72;;;1.40;100.00
17072;BME280;7731;50.720;6.912;2023-02-15T02:36:49;101285.91;;;1.43;100.00
17072;BME280;7731;50.720;6.912;2023-02-15T02:39:39;101286.84;;;1.64;100.00
17072;BME280;7731;50.720;6.912;2023-02-15T02:42:21;101280.81;;;1.40;100.00
17072;BME280;7731;50.720;6.912;2023-02-15T02:45:03;101284.28;;;1.54;100.00
17072;BME280;7731;50.720;6.912;2023-02-15T02:47:43;101277.34;;;1.32;100.00
17072;BME280;7731;50.720;6.912;2023-02-15T02:50:25;101269.78;;;1.33;100.00
17072;BME280;7731;50.720;6.912;2023-02-15T02:52:58;101267.28;;;1.38;100.00
17072;BME280;7731;50.720;6.912;2023-02-15T02:55:34;101264.06;;;1.65;100.00
17072;BME280;7731;50.720;6.912;2023-02-15T02:58:14;101268.97;;;1.36;100.00
17072;BME280;7731;50.720;6.912;2023-02-15T03:00:53;101261.47;;;1.51;100.00
17072;BME280;7731;50.720;6.912;2023-02-15T03:03:30;101259.75;;;1.52;100.00
17072;BME280;7731;50.720;6.912;2023-02-15T03:06:09;101251.25;;;1.39;100.00
17072;BME280;7731;50.720;6.912;2023-02-15T03:08:46;101242.06;;;1.56;100.00
17072;BME280;7731;50.720;6.912;2023-02-15T03:11:17;101245.47;;;1.58;100.00
17072;BME280;7731;50.720;6.912;2023-02-15T03:13:49;101231.94;;;1.59;100.00
17072;BME280;7731;50.720;6.912;2023-02-15T03:16:20;101242.78;;;1.32;100.00
17072;BME280;7731;50.720;6.912;2023-02-15T03:19:02;101238.41;;;1.11;100.00
17072;BME280;7731;50.720;6.912;2023-02-15T03:21:51;101241.16;;;1.42;100.00
17072;BME280;7731;50.720;6.912;2023-02-15T03:24:35;101238.66;;;1.48;100.00
17072;BME280;7731;50.720;6.912;2023-02-15T03:27:33;101241.75;;;1.10;100.00
17072;BME280;7731;50.720;6.912;2023-02-15T03:30:29;101229.13;;;1.10;100.00
17072;BME280;7731;50.720;6.912;2023-02-15T03:33:23;101234.25;;;1.21;100.00
17072;BME280;7731;50.720;6.912;2023-02-15T03:36:21;101230.41;;;1.92;100.00
17072;BME280;7731;50.720;6.912;2023-02-15T03:39:04;101239.44;;;1.41;100.00
17072;BME280;7731;50.720;6.912;2023-02-15T03:41:45;101230.19;;;1.41;100.00
17072;BME280;7731;50.720;6.912;2023-02-15T03:44:25;101229.16;;;1.18;100.00
17072;BME280;7731;50.720;6.912;2023-02-15T03:47:04;101220.00;;;1.34;100.00
17072;BME280;7731;50.720;6.912;2023-02-15T03:49:43;101224.28;;;1.46;100.00
17072;BME280;7731;50.720;6.912;2023-02-15T03:52:17;101217.47;;;1.32;100.00
17072;BME280;7731;50.720;6.912;2023-02-15T03:54:53;101219.13;;;1.32;100.00
17072;BME280;7731;50.720;6.912;2023-02-15T03:57:26;101216.44;;;1.07;100.00
17072;BME280;7731;50.720;6.912;2023-02-15T04:00:15;101212.34;;;1.21;100.00
17072;BME280;7731;50.720;6.912;2023-02-15T04:03:21;101218.25;;;1.27;100.00
17072;BME280;7731;50.720;6.912;2023-02-15T04:05:54;101224.13;;;1.24;100.00
17072;BME280;7731;50.720;6.912;2023-02-15T04:08:25;101224.03;;;1.09;100.00
17072;BME280;7731;50.720;6.912;2023-02-15T04:11:18;101224.09;;;1.16;100.00
17072;BME280;7731;50.720;6.912;2023-02-15T04:13:46;101229.97;;;1.08;100.00
17072;BME280;7731;50.720;6.912;2023-02-15T04:16:24;101228.25;;;1.05;100.00
17072;BME280;7731;50.720;6.912;2023-02-15T04:18:52;101222.31;;;1.04;100.00
17072;BME280;7731;50.720;6.912;2023-02-15T04:21:34;101230.69;;;0.96;100.00
17072;BME280;7731;50.720;6.912;2023-02-15T04:24:18;101225.03;;;1.28;100.00
17072;BME280;7731;50.720;6.912;2023-02-15T04:27:04;101225.03;;;1.28;100.00
17072;BME280;7731;50.720;6.912;2023-02-15T04:29:34;101224.19;;;1.33;100.00
17072;BME280;7731;50.720;6.912;2023-02-15T04:32:05;101225.00;;;1.23;100.00
17072;BME280;7731;50.720;6.912;2023-02-15T04:34:35;101218.19;;;1.17;100.00
17072;BME280;7731;50.720;6.912;2023-02-15T04:37:05;101213.13;;;1.17;100.00
17072;BME280;7731;50.720;6.912;2023-02-15T04:39:35;101220.66;;;1.08;100.00
17072;BME280;7731;50.720;6.912;2023-02-15T04:42:08;101217.16;;;0.92;100.00
17072;BME280;7731;50.720;6.912;2023-02-15T04:44:39;101204.56;;;1.00;100.00
17072;BME280;7731;50.720;6.912;2023-02-15T04:47:09;101207.25;;;1.18;100.00
17072;BME280;7731;50.720;6.912;2023-02-15T04:49:39;101210.56;;;1.10;100.00
17072;BME280;7731;50.720;6.912;2023-02-15T04:52:10;101205.41;;;0.97;100.00
17072;BME280;7731;50.720;6.912;2023-02-15T04:54:41;101211.34;;;1.01;100.00
17072;BME280;7731;50.720;6.912;2023-02-15T04:57:14;101198.66;;;0.99;100.00
17072;BME280;7731;50.720;6.912;2023-02-15T04:59:44;101196.94;;;0.97;100.00
17072;BME280;7731;50.720;6.912;2023-02-15T05:02:14;101201.28;;;1.13;100.00
17072;BME280;7731;50.720;6.912;2023-02-15T05:04:44;101202.22;;;1.23;100.00
17072;BME280;7731;50.720;6.912;2023-02-15T05:07:14;101204.69;;;1.12;100.00
17072;BME280;7731;50.720;6.912;2023-02-15T05:09:44;101211.25;;;0.92;100.00
17072;BME280;7731;50.720;6.912;2023-02-15T05:12:17;101214.59;;;0.87;100.00
17072;BME280;7731;50.720;6.912;2023-02-15T05:14:47;101217.94;;;0.80;100.00
17072;BME280;7731;50.720;6.912;2023-02-15T05:17:17;101213.75;;;0.85;100.00
17072;BME280;7731;50.720;6.912;2023-02-15T05:19:48;101213.06;;;1.08;100.00
17072;BME280;7731;50.720;6.912;2023-02-15T05:22:18;101212.13;;;0.97;100.00
17072;BME280;7731;50.720;6.912;2023-02-15T05:24:48;101191.00;;;0.88;100.00
17072;BME280;7731;50.720;6.912;2023-02-15T05:27:33;101197.78;;;0.93;100.00
17072;BME280;7731;50.720;6.912;2023-02-15T05:30:16;101202.75;;;0.79;100.00
17072;BME280;7731;50.720;6.912;2023-02-15T05:32:46;101206.03;;;0.70;100.00
17072;BME280;7731;50.720;6.912;2023-02-15T05:35:17;101195.25;;;0.93;100.00
17072;BME280;7731;50.720;6.912;2023-02-15T05:37:47;101202.06;;;1.03;100.00
17072;BME280;7731;50.720;6.912;2023-02-15T05:40:17;101201.16;;;0.93;100.00
17072;BME280;7731;50.720;6.912;2023-02-15T05:42:50;101205.47;;;1.05;100.00
17072;BME280;7731;50.720;6.912;2023-02-15T05:45:20;101202.84;;;0.93;100.00
17072;BME280;7731;50.720;6.912;2023-02-15T05:47:50;101199.50;;;1.00;100.00
17072;BME280;7731;50.720;6.912;2023-02-15T05:50:21;101198.53;;;0.82;100.00
17072;BME280;7731;50.720;6.912;2023-02-15T05:52:51;101200.13;;;0.66;100.00
17072;BME280;7731;50.720;6.912;2023-02-15T05:55:21;101196.03;;;0.85;100.00
17072;BME280;7731;50.720;6.912;2023-02-15T05:57:54;101193.38;;;0.67;100.00
17072;BME280;7731;50.720;6.912;2023-02-15T06:00:24;101209.47;;;0.78;100.00
17072;BME280;7731;50.720;6.912;2023-02-15T06:02:55;101197.59;;;0.69;100.00
17072;BME280;7731;50.720;6.912;2023-02-15T06:05:25;101200.16;;;0.73;100.00
17072;BME280;7731;50.720;6.912;2023-02-15T06:07:55;101192.56;;;0.71;100.00
17072;BME280;7731;50.720;6.912;2023-02-15T06:10:25;101195.81;;;0.56;100.00
17072;BME280;7731;50.720;6.912;2023-02-15T06:12:58;101189.06;;;0.57;100.00
17072;BME280;7731;50.720;6.912;2023-02-15T06:15:30;101199.06;;;0.44;100.00
17072;BME280;7731;50.720;6.912;2023-02-15T06:18:00;101202.56;;;0.57;100.00
17072;BME280;7731;50.720;6.912;2023-02-15T06:20:30;101202.59;;;0.62;100.00
17072;BME280;7731;50.720;6.912;2023-02-15T06:23:01;101207.84;;;0.83;100.00
17072;BME280;7731;50.720;6.912;2023-02-15T06:25:31;101200.19;;;0.76;100.00
17072;BME280;7731;50.720;6.912;2023-02-15T06:28:06;101204.19;;;0.53;100.00
17072;BME280;7731;50.720;6.912;2023-02-15T06:30:37;101195.88;;;0.64;100.00
17072;BME280;7731;50.720;6.912;2023-02-15T06:33:07;101193.34;;;0.64;100.00
17072;BME280;7731;50.720;6.912;2023-02-15T06:35:37;101202.59;;;0.62;100.00
17072;BME280;7731;50.720;6.912;2023-02-15T06:38:08;101201.84;;;0.74;100.00
17072;BME280;7731;50.720;6.912;2023-02-15T06:40:38;101209.28;;;0.57;100.00
17072;BME280;7731;50.720;6.912;2023-02-15T06:43:11;101201.84;;;0.74;100.00
17072;BME280;7731;50.720;6.912;2023-02-15T06:45:41;101210.25;;;0.69;100.00
17072;BME280;7731;50.720;6.912;2023-02-15T06:48:12;101199.94;;;0.46;100.00
17072;BME280;7731;50.720;6.912;2023-02-15T06:50:44;101194.19;;;0.66;100.00
17072;BME280;7731;50.720;6.912;2023-02-15T06:53:16;101195.09;;;0.73;100.00
17072;BME280;7731;50.720;6.912;2023-02-15T06:55:46;101198.22;;;0.45;100.00
17072;BME280;7731;50.720;6.912;2023-02-15T06:58:21;101199.97;;;0.51;100.00
17072;BME280;7731;50.720;6.912;2023-02-15T07:00:52;101202.63;;;0.65;100.00
17072;BME280;7731;50.720;6.912;2023-02-15T07:03:27;101200.13;;;0.68;100.00
17072;BME280;7731;50.720;6.912;2023-02-15T07:06:00;101203.59;;;0.82;100.00
17072;BME280;7731;50.720;6.912;2023-02-15T07:08:33;101193.44;;;0.75;100.00
17072;BME280;7731;50.720;6.912;2023-02-15T07:11:05;101187.47;;;0.68;100.00
17072;BME280;7731;50.720;6.912;2023-02-15T07:13:51;101194.22;;;0.69;100.00
17072;BME280;7731;50.720;6.912;2023-02-15T07:16:21;101198.63;;;0.93;100.00
17072;BME280;7731;50.720;6.912;2023-02-15T07:18:51;101196.09;;;0.95;100.00
17072;BME280;7731;50.720;6.912;2023-02-15T07:21:21;101193.53;;;0.90;100.00
17072;BME280;7731;50.720;6.912;2023-02-15T07:23:52;101194.38;;;0.91;100.00
17072;BME280;7731;50.720;6.912;2023-02-15T07:26:22;101186.94;;;1.06;100.00
17072;BME280;7731;50.720;6.912;2023-02-15T07:28:55;101185.28;;;1.16;100.00
17072;BME280;7731;50.720;6.912;2023-02-15T07:31:25;101181.88;;;1.06;100.00
17072;BME280;7731;50.720;6.912;2023-02-15T07:33:55;101176.09;;;1.32;100.00
17072;BME280;7731;50.720;6.912;2023-02-15T07:36:25;101181.97;;;1.24;100.00
17072;BME280;7731;50.720;6.912;2023-02-15T07:38:55;101176.09;;;1.32;100.00
17072;BME280;7731;50.720;6.912;2023-02-15T07:41:25;101168.53;;;1.39;100.00
17072;BME280;7731;50.720;6.912;2023-02-15T07:43:58;101164.41;;;1.52;100.00
17072;BME280;7731;50.720;6.912;2023-02-15T07:46:28;101159.38;;;1.68;100.00
17072;BME280;7731;50.720;6.912;2023-02-15T07:48:59;101154.38;;;1.83;100.00
17072;BME280;7731;50.720;6.912;2023-02-15T07:51:29;101165.38;;;1.93;100.00
17072;BME280;7731;50.720;6.912;2023-02-15T07:53:59;101167.97;;;2.19;100.00
17072;BME280;7731;50.720;6.912;2023-02-15T07:56:29;101157.00;;;2.36;100.00
17072;BME280;7731;50.720;6.912;2023-02-15T07:59:04;101149.25;;;3.44;100.00
17072;BME280;7731;50.720;6.912;2023-02-15T08:01:39;101135.78;;;5.46;96.24
17072;BME280;7731;50.720;6.912;2023-02-15T08:04:09;101140.34;;;7.42;80.30
17072;BME280;7731;50.720;6.912;2023-02-15T08:06:41;101134.09;;;8.68;69.31
17072;BME280;7731;50.720;6.912;2023-02-15T08:09:12;101127.16;;;9.66;60.20
17072;BME280;7731;50.720;6.912;2023-02-15T08:11:42;101118.75;;;10.17;56.43
17072;BME280;7731;50.720;6.912;2023-02-15T08:14:17;101114.31;;;11.00;51.47
17072;BME280;7731;50.720;6.912;2023-02-15T08:16:51;101116.38;;;10.65;54.36
17072;BME280;7731;50.720;6.912;2023-02-15T08:19:25;101116.97;;;11.44;49.66
17072;BME280;7731;50.720;6.912;2023-02-15T08:21:57;101109.72;;;11.08;49.56
17072;BME280;7731;50.720;6.912;2023-02-15T08:24:30;101106.72;;;12.32;48.55
17072;BME280;7731;50.720;6.912;2023-02-15T08:27:01;101104.75;;;12.17;46.30
17072;BME280;7731;50.720;6.912;2023-02-15T08:29:37;101109.63;;;12.03;47.32
17072;BME280;7731;50.720;6.912;2023-02-15T08:32:12;101105.59;;;12.18;46.59
17072;BME280;7731;50.720;6.912;2023-02-15T08:34:42;101117.78;;;11.68;46.92
17072;BME280;7731;50.720;6.912;2023-02-15T08:37:12;101107.44;;;11.70;49.05
17072;BME280;7731;50.720;6.912;2023-02-15T08:39:43;101106.56;;;12.56;46.17
17072;BME280;7731;50.720;6.912;2023-02-15T08:42:13;101113.69;;;12.30;45.37
17072;BME280;7731;50.720;6.912;2023-02-15T08:44:45;101097.34;;;11.87;46.42
17072;BME280;7731;50.720;6.912;2023-02-15T08:47:17;101096.53;;;13.29;45.47
17072;BME280;7731;50.720;6.912;2023-02-15T08:49:47;101097.94;;;12.57;45.56
17072;BME280;7731;50.720;6.912;2023-02-15T08:52:20;101101.78;;;14.72;41.42
17072;BME280;7731;50.720;6.912;2023-02-15T08:54:50;101092.84;;;13.54;43.11
17072;BME280;7731;50.720;6.912;2023-02-15T08:57:21;101092.22;;;13.68;43.83
17072;BME280;7731;50.720;6.912;2023-02-15T08:59:54;101090.13;;;13.76;42.13
17072;BME280;7731;50.720;6.912;2023-02-15T09:02:24;101103.31;;;12.32;46.94
17072;BME280;7731;50.720;6.912;2023-02-15T09:04:54;101104.63;;;12.82;44.68
17072;BME280;7731;50.720;6.912;2023-02-15T09:07:24;101087.25;;;14.00;42.44
17072;BME280;7731;50.720;6.912;2023-02-15T09:09:55;101092.66;;;14.13;41.34
17072;BME280;7731;50.720;6.912;2023-02-15T09:12:25;101085.84;;;14.11;41.67
17072;BME280;7731;50.720;6.912;2023-02-15T09:14:58;101083.84;;;15.50;39.26
17072;BME280;7731;50.720;6.912;2023-02-15T09:17:28;101093.09;;;14.03;41.73
17072;BME280;7731;50.720;6.912;2023-02-15T09:19:58;101095.53;;;15.10;39.76
17072;BME280;7731;50.720;6.912;2023-02-15T09:22:28;101097.59;;;14.52;40.75
17072;BME280;7731;50.720;6.912;2023-02-15T09:25:01;101088.88;;;15.85;38.98
17072;BME280;7731;50.720;6.912;2023-02-15T09:27:32;101096.69;;;14.53;40.44
17072;BME280;7731;50.720;6.912;2023-02-15T09:30:18;101090.72;;;16.14;37.35
17072;BME280;7731;50.720;6.912;2023-02-15T09:32:49;101089.88;;;15.35;38.60
17072;BME280;7731;50.720;6.912;2023-02-15T09:35:21;101090.19;;;15.29;40.07
17072;BME280;7731;50.720;6.912;2023-02-15T09:37:51;101090.53;;;15.54;39.09
17072;BME280;7731;50.720;6.912;2023-02-15T09:40:23;101105.03;;;13.69;43.26
17072;BME280;7731;50.720;6.912;2023-02-15T09:43:28;101092.34;;;16.90;37.59
17072;BME280;7731;50.720;6.912;2023-02-15T09:46:33;101090.31;;;16.50;37.05
17072;BME280;7731;50.720;6.912;2023-02-15T09:49:15;101093.91;;;17.07;35.97
17072;BME280;7731;50.720;6.912;2023-02-15T09:52:23;101085.56;;;17.43;34.68
17072;BME280;7731;50.720;6.912;2023-02-15T09:55:18;101088.25;;;17.00;36.08
17072;BME280;7731;50.720;6.912;2023-02-15T09:58:01;101083.44;;;16.94;35.44
17072;BME280;7731;50.720;6.912;2023-02-15T10:00:44;101098.94;;;15.10;38.98
17072;BME280;7731;50.720;6.912;2023-02-15T10:03:47;101088.41;;;17.80;34.80
17072;BME280;7731;50.720;6.912;2023-02-15T10:06:34;101090.56;;;16.90;36.07
17072;BME280;7731;50.720;6.912;2023-02-15T10:09:26;101094.78;;;15.87;37.93
17072;BME280;7731;50.720;6.912;2023-02-15T10:12:19;101094.00;;;14.90;40.56
17072;BME280;7731;50.720;6.912;2023-02-15T10:15:16;101089.88;;;15.67;39.33
17072;BME280;7731;50.720;6.912;2023-02-15T10:18:13;101082.34;;;15.78;39.74
17072;BME280;7731;50.720;6.912;2023-02-15T10:21:01;101067.50;;;17.42;36.58
17072;BME280;7731;50.720;6.912;2023-02-15T10:23:55;101075.59;;;16.79;36.64
17072;BME280;7731;50.720;6.912;2023-02-15T10:26:37;101077.38;;;16.93;36.98
17072;BME280;7731;50.720;6.912;2023-02-15T10:29:24;101084.22;;;16.66;36.86
17072;BME280;7731;50.720;6.912;2023-02-15T10:32:15;101085.97;;;16.51;37.11
17072;BME280;7731;50.720;6.912;2023-02-15T10:34:56;101087.44;;;16.40;37.68
17072;BME280;7731;50.720;6.912;2023-02-15T10:37:52;101069.53;;;16.21;37.56
17072;BME280;7731;50.720;6.912;2023-02-15T10:40:41;101085.38;;;14.38;41.37
17072;BME280;7731;50.720;6.912;2023-02-15T10:43:52;101081.59;;;15.28;39.85
17072;BME280;7731;50.720;6.912;2023-02-15T10:46:59;101085.50;;;14.53;41.25
17072;BME280;7731;50.720;6.912;2023-02-15T10:50:15;101086.28;;;14.02;42.61
17072;BME280;7731;50.720;6.912;2023-02-15T10:53:34;101077.69;;;15.53;39.51
17072;BME280;7731;50.720;6.912;2023-02-15T10:56:19;101077.91;;;15.16;39.58
17072;BME280;7731;50.720;6.912;2023-02-15T10:59:38;101071.66;;;15.21;40.26
17072;BME280;7731;50.720;6.912;2023-02-15T11:02:22;101062.59;;;15.92;39.37
17072;BME280;7731;50.720;6.912;2023-02-15T11:05:14;101064.16;;;14.14;42.16
17072;BME280;7731;50.720;6.912;2023-02-15T11:07:54;101062.41;;;14.67;41.65
17072;BME280;7731;50.720;6.912;2023-02-15T11:10:33;101057.94;;;14.87;40.92
17072;BME280;7731;50.720;6.912;2023-02-15T11:13:11;101054.28;;;14.22;43.18
17072;BME280;7731;50.720;6.912;2023-02-15T11:15:48;101044.06;;;14.88;42.47
17072;BME280;7731;50.720;6.912;2023-02-15T11:18:26;101037.88;;;15.70;40.06
17072;BME280;7731;50.720;6.912;2023-02-15T11:21:04;101025.19;;;15.49;40.62
17072;BME280;7731;50.720;6.912;2023-02-15T11:23:44;101029.31;;;14.90;41.76
17072;BME280;7731;50.720;6.912;2023-02-15T11:26:26;101034.31;;;14.08;43.15
17072;BME280;7731;50.720;6.912;2023-02-15T11:29:05;101030.25;;;14.03;43.78
17072;BME280;7731;50.720;6.912;2023-02-15T11:31:45;101029.19;;;13.35;45.61
17072;BME280;7731;50.720;6.912;2023-02-15T11:34:23;101025.34;;;14.49;44.07
17072;BME280;7731;50.720;6.912;2023-02-15T11:37:06;101022.28;;;14.58;43.11
17072;BME280;7731;50.720;6.912;2023-02-15T11:39:43;101018.44;;;16.67;39.10
17072;BME280;7731;50.720;6.912;2023-02-15T11:42:23;101017.53;;;15.94;40.16
17072;BME280;7731;50.720;6.912;2023-02-15T11:45:04;101019.00;;;15.84;40.19
17072;BME280;7731;50.720;6.912;2023-02-15T11:47:38;101014.44;;;15.41;41.79
17072;BME280;7731;50.720;6.912;2023-02-15T11:50:13;101021.72;;;15.18;40.85
17072;BME280;7731;50.720;6.912;2023-02-15T11:52:45;101005.94;;;16.88;37.41
17072;BME280;7731;50.720;6.912;2023-02-15T11:55:21;101004.53;;;16.24;39.51
17072;BME280;7731;50.720;6.912;2023-02-15T11:57:59;101006.94;;;16.71;38.79
17072;BME280;7731;50.720;6.912;2023-02-15T12:00:36;101007.78;;;15.67;41.09
17072;BME280;7731;50.720;6.912;2023-02-15T12:03:19;100998.25;;;15.68;41.34
17072;BME280;7731;50.720;6.912;2023-02-15T12:05:57;100997.44;;;15.67;42.05
17072;BME280;7731;50.720;6.912;2023-02-15T12:08:37;100988.41;;;15.12;42.55
17072;BME280;7731;50.720;6.912;2023-02-15T12:11:20;100995.94;;;14.52;44.46
17072;BME280;7731;50.720;6.912;2023-02-15T12:13:58;100984.88;;;14.81;43.47
17072;BME280;7731;50.720;6.912;2023-02-15T12:16:32;100978.63;;;15.02;43.23
17072;BME280;7731;50.720;6.912;2023-02-15T12:19:04;100970.59;;;15.38;41.33
17072;BME280;7731;50.720;6.912;2023-02-15T12:21:41;100977.06;;;13.64;46.26
17072;BME280;7731;50.720;6.912;2023-02-15T12:24:18;100968.59;;;13.06;47.30
17072;BME280;7731;50.720;6.912;2023-02-15T12:27:02;100972.91;;;13.61;47.06
17072;BME280;7731;50.720;6.912;2023-02-15T12:29:40;100969.69;;;13.56;46.78
17072;BME280;7731;50.720;6.912;2023-02-15T12:32:17;100963.38;;;13.25;48.15
17072;BME280;7731;50.720;6.912;2023-02-15T12:34:50;100967.59;;;12.90;48.53
17072;BME280;7731;50.720;6.912;2023-02-15T12:37:26;100977.94;;;13.09;49.48
17072;BME280;7731;50.720;6.912;2023-02-15T12:40:01;100968.97;;;13.16;48.46
17072;BME280;7731;50.720;6.912;2023-02-15T12:42:45;100964.53;;;13.19;48.56
17072;BME280;7731;50.720;6.912;2023-02-15T12:45:26;100969.19;;;13.11;49.67
17072;BME280;7731;50.720;6.912;2023-02-15T12:48:15;100962.94;;;12.79;50.28
17072;BME280;7731;50.720;6.912;2023-02-15T12:50:47;100957.66;;;13.37;48.79
17072;BME280;7731;50.720;6.912;2023-02-15T12:53:33;100960.13;;;13.75;47.16
17072;BME280;7731;50.720;6.912;2023-02-15T12:56:06;100953.00;;;13.46;48.50
17072;BME280;7731;50.720;6.912;2023-02-15T12:58:43;100944.00;;;13.53;47.85
17072;BME280;7731;50.720;6.912;2023-02-15T13:01:16;100944.78;;;13.72;47.57
17072;BME280;7731;50.720;6.912;2023-02-15T13:03:58;100943.97;;;13.18;49.17
17072;BME280;7731;50.720;6.912;2023-02-15T13:06:33;100947.28;;;12.64;50.37
17072;BME280;7731;50.720;6.912;2023-02-15T13:09:15;100945.78;;;12.40;51.34
17072;BME280;7731;50.720;6.912;2023-02-15T13:11:46;100934.63;;;12.39;52.24
17072;BME280;7731;50.720;6.912;2023-02-15T13:14:30;100928.38;;;12.45;52.30
17072;BME280;7731;50.720;6.912;2023-02-15T13:17:04;100929.34;;;12.80;51.54
17072;BME280;7731;50.720;6.912;2023-02-15T13:19:42;100915.31;;;12.68;51.89
17072;BME280;7731;50.720;6.912;2023-02-15T13:22:24;100910.47;;;12.42;52.59
17072;BME280;7731;50.720;6.912;2023-02-15T13:24:59;100906.22;;;12.79;51.28
17072;BME280;7731;50.720;6.912;2023-02-15T13:27:37;100903.06;;;12.53;52.14
17072;BME280;7731;50.720;6.912;2023-02-15T13:30:23;100904.91;;;13.07;50.70
17072;BME280;7731;50.720;6.912;2023-02-15T13:33:02;100910.00;;;12.72;51.20
17072;BME280;7731;50.720;6.912;2023-02-15T13:35:44;100909.94;;;13.10;51.10
17072;BME280;7731;50.720;6.912;2023-02-15T13:38:38;100901.91;;;13.16;50.11
17072;BME280;7731;50.720;6.912;2023-02-15T13:41:17;100899.91;;;12.67;51.77
17072;BME280;7731;50.720;6.912;2023-02-15T13:44:04;100893.53;;;12.74;51.85
17072;BME280;7731;50.720;6.912;2023-02-15T13:47:19;100897.28;;;12.86;51.40
17072;BME280;7731;50.720;6.912;2023-02-15T13:50:15;100893.13;;;12.64;52.08
17072;BME280;7731;50.720;6.912;2023-02-15T13:53:07;100891.94;;;12.72;51.55
17072;BME280;7731;50.720;6.912;2023-02-15T13:55:50;100885.16;;;12.88;51.52
17072;BME280;7731;50.720;6.912;2023-02-15T14:01:34;100889.66;;;12.65;51.25